Terminal Aerodrome Forecast
Issued by NWS Kansas City/Pleasant Hill, MO

Home | Current Version | Previous Version | Text Only | Print | Product List | Glossary On
Versions: 1 2 3 4 5 6 7 8 9 10 11 12
840
FTUS43 KEAX 302322
TAFMCI
TAF
KMCI 302322Z 0100/0124 28011KT P6SM BKN050
     FM010400 27008KT P6SM SCT040
     FM010800 27007KT P6SM FEW200=

USA.gov is the U.S. government's official web portal to all federal, state and local government web resources and services.